Airfield :
LOGIN :

Register | Disclaimer

   EN    FR    IT 

 










Legend :    VFR   Marginal VFR   IFR   Intensive IFR   Very Intensive IFR
Visi :
Ceiling :
>= 8 km
>= 3000ft
5 to 8 km
1000 to 3000 ft
1500m to 5 km
500 to 1000 ft
800 to 1500m
200 to 500 ft
< 800m
< 200 ft
Symbols :   Thunderstorms  Fog  Heavy snow  Heavy precipitations  Wind > 20 kt
SIGMETs :     Misc.  Thunderstorms  Icing  Turbulence  Mountain Waves  Volcanic Ashes






- Airport Elevation : 392 ft
- IATA code : CDG


LFPG - Paris-Aeroport Charles De Gaulle

CURRENT METAR :
  • 070330Z 26004KT 2000 0600 R27L/P2000 R09R/0500N R26R/1500D R08L/0400N R26L/0550U R08R/0350N R27R/1800U R09L/0650D BCFG BR SCT001 SCT045 00/M00 Q1021 TEMPO 0300 FG VV///

EXPIRED METARs :
  • 070300Z VRB03KT 2000 0600S R27L/P2000 R09R/P2000 R26R/0600U R08L/0650D R26L/0600D R08R/1400U R27R/0750D R09L/1500D BCFG BR FEW001 SCT045 00/M00 Q1021 TEMPO 0300 FG VV///
  • 070230Z VRB02KT 2000 0600 R27L/P2000 R09R/1900U R26R/1700D R08L/0900D R26L/0700D R08R/1900D R27R/P2000 R09L/0750D BCFG BR FEW002 01/00 Q1021 TEMPO 0300 FG VV///
  • 070200Z VRB02KT 3000 R09R/1000D BR FEW002 SCT021 BKN043 01/01 Q1021 TEMPO 0300 FG VV///
  • 070130Z 34004KT 3000 BR FEW002 BKN043 01/01 Q1021 TEMPO 0300 FG VV///
  • 070100Z 28002KT 3000 0700 R27L/1100U R09R/1100U R26R/P2000 R08L/P2000 R26L/P2000 R08R/P2000 R27R/0800N R09L/1700U BCFG BR FEW001 BKN043 01/01 Q1021 TEMPO 0300 FG VV///

TAF AMD TAF LFPG
Valid from the 07 at 00:00 until the 08 at 06:00 UTC


070041Z 0700/0806 VRB03KT 2000 BR SCT001 TX04/0712Z TN01/0700Z
TEMPO 0700/0711 0300 FG VV///
BECMG 0711/0713 4000 BR BKN003
BECMG 0718/0721 0800 FG BKN001
TEMPO 0722/0806 0300 VV///
ATIS : +33 1 48 62 10 92



MET'MAP, your aeronautical weather chart ! - Copyright ORBIFLY December 2007 - Disclaimer

ORBIFLY MET'MAP TEAM :

Programming & Development : Alexandra Zaïnal
Original concept : Baudouin d'Aumeries
Technical & hardware support : Manuel Goepfert
Assistance : Marc-Olivier Méhu




SOURCES & CREDITS :

   NOAA